Fowler, Michigan
Current Conditions -  °F | °C
As of 9:53 PM on Tuesday 25 Nov 2014 (Local Time) from KY70 Reporting Station
Overcast Overcast  
Wind Chill: 22°   Ceiling: 2000
Heat Index: 30°   Visibility: 10mi
Dew Point: 23°   Wind: 9mph
Humidity: 75%   Direction: 240°WSW
Pressure: 30.15"   Gusts: NA
Location:  43°N, 84.74°W
Report Text: KY70 260253Z AUTO 24008KT 10SM OVC020 M01/M05 A3015 RMK AO2 T10111050
Loading
Personal Weather Stations






























Interactive Weather Map New forecast layout! Learn more

10-Day Weather Forecast

Advertisements
Track Severe Weather on mobile